sensor_id;sensor_type;location;lat;lon;timestamp;P1;durP1;ratioP1;P2;durP2;ratioP2
40449;SDS011;41787;53.570;10.032;2022-08-25T00:01:34;5.05;;;2.78;;
40449;SDS011;41787;53.570;10.032;2022-08-25T00:04:02;8.20;;;3.40;;
40449;SDS011;41787;53.570;10.032;2022-08-25T00:06:29;9.32;;;2.90;;
40449;SDS011;41787;53.570;10.032;2022-08-25T00:08:55;6.18;;;3.08;;
40449;SDS011;41787;53.570;10.032;2022-08-25T00:11:23;4.78;;;2.65;;
40449;SDS011;41787;53.570;10.032;2022-08-25T00:13:51;5.47;;;3.05;;
40449;SDS011;41787;53.570;10.032;2022-08-25T00:16:19;8.35;;;3.60;;
40449;SDS011;41787;53.570;10.032;2022-08-25T00:18:46;5.93;;;3.17;;
40449;SDS011;41787;53.570;10.032;2022-08-25T00:21:12;7.95;;;3.10;;
40449;SDS011;41787;53.570;10.032;2022-08-25T00:23:39;4.80;;;3.03;;
40449;SDS011;41787;53.570;10.032;2022-08-25T00:26:05;10.40;;;3.20;;
40449;SDS011;41787;53.570;10.032;2022-08-25T00:28:31;9.07;;;3.42;;
40449;SDS011;41787;53.570;10.032;2022-08-25T00:30:57;10.63;;;3.20;;
40449;SDS011;41787;53.570;10.032;2022-08-25T00:33:25;5.35;;;3.17;;
40449;SDS011;41787;53.570;10.032;2022-08-25T00:35:51;6.40;;;3.20;;
40449;SDS011;41787;53.570;10.032;2022-08-25T00:38:18;6.63;;;3.20;;
40449;SDS011;41787;53.570;10.032;2022-08-25T00:40:44;7.57;;;3.00;;
40449;SDS011;41787;53.570;10.032;2022-08-25T00:43:11;9.15;;;3.60;;
40449;SDS011;41787;53.570;10.032;2022-08-25T00:45:37;7.25;;;3.35;;
40449;SDS011;41787;53.570;10.032;2022-08-25T00:48:04;5.45;;;2.78;;
40449;SDS011;41787;53.570;10.032;2022-08-25T00:50:31;6.65;;;3.50;;
40449;SDS011;41787;53.570;10.032;2022-08-25T00:52:59;5.82;;;3.10;;
40449;SDS011;41787;53.570;10.032;2022-08-25T00:55:28;7.05;;;3.70;;
40449;SDS011;41787;53.570;10.032;2022-08-25T00:57:55;7.93;;;2.97;;
40449;SDS011;41787;53.570;10.032;2022-08-25T01:00:27;9.23;;;3.47;;
40449;SDS011;41787;53.570;10.032;2022-08-25T01:02:54;6.90;;;3.58;;
40449;SDS011;41787;53.570;10.032;2022-08-25T01:05:21;9.15;;;3.33;;
40449;SDS011;41787;53.570;10.032;2022-08-25T01:07:47;11.48;;;3.42;;
40449;SDS011;41787;53.570;10.032;2022-08-25T01:10:14;6.72;;;3.40;;
40449;SDS011;41787;53.570;10.032;2022-08-25T01:12:41;10.07;;;3.35;;
40449;SDS011;41787;53.570;10.032;2022-08-25T01:15:08;7.03;;;3.42;;
40449;SDS011;41787;53.570;10.032;2022-08-25T01:17:37;5.82;;;3.40;;
40449;SDS011;41787;53.570;10.032;2022-08-25T01:20:03;8.27;;;3.63;;
40449;SDS011;41787;53.570;10.032;2022-08-25T01:22:30;9.27;;;3.80;;
40449;SDS011;41787;53.570;10.032;2022-08-25T01:24:58;5.55;;;3.60;;
40449;SDS011;41787;53.570;10.032;2022-08-25T01:27:27;6.88;;;3.60;;
40449;SDS011;41787;53.570;10.032;2022-08-25T01:29:53;5.57;;;3.38;;
40449;SDS011;41787;53.570;10.032;2022-08-25T01:32:21;8.48;;;3.35;;
40449;SDS011;41787;53.570;10.032;2022-08-25T01:34:47;6.00;;;3.50;;
40449;SDS011;41787;53.570;10.032;2022-08-25T01:37:14;6.90;;;3.90;;
40449;SDS011;41787;53.570;10.032;2022-08-25T01:39:40;7.97;;;4.03;;
40449;SDS011;41787;53.570;10.032;2022-08-25T01:44:42;8.82;;;3.58;;
40449;SDS011;41787;53.570;10.032;2022-08-25T01:47:09;11.55;;;4.00;;
40449;SDS011;41787;53.570;10.032;2022-08-25T01:49:35;8.38;;;3.83;;
40449;SDS011;41787;53.570;10.032;2022-08-25T01:52:06;7.13;;;4.10;;
40449;SDS011;41787;53.570;10.032;2022-08-25T01:54:34;6.50;;;3.63;;
40449;SDS011;41787;53.570;10.032;2022-08-25T01:57:00;8.27;;;3.45;;
40449;SDS011;41787;53.570;10.032;2022-08-25T01:59:26;5.97;;;3.67;;
40449;SDS011;41787;53.570;10.032;2022-08-25T02:01:52;8.40;;;3.50;;
40449;SDS011;41787;53.570;10.032;2022-08-25T02:04:18;9.10;;;3.50;;
40449;SDS011;41787;53.570;10.032;2022-08-25T02:06:44;7.00;;;3.65;;
40449;SDS011;41787;53.570;10.032;2022-08-25T02:09:11;9.75;;;3.88;;
40449;SDS011;41787;53.570;10.032;2022-08-25T02:11:38;10.18;;;4.05;;
40449;SDS011;41787;53.570;10.032;2022-08-25T02:14:06;8.77;;;3.90;;
40449;SDS011;41787;53.570;10.032;2022-08-25T02:16:34;7.13;;;3.15;;
40449;SDS011;41787;53.570;10.032;2022-08-25T02:19:01;6.80;;;3.85;;
40449;SDS011;41787;53.570;10.032;2022-08-25T02:21:27;7.25;;;3.83;;
40449;SDS011;41787;53.570;10.032;2022-08-25T02:23:53;6.68;;;3.83;;
40449;SDS011;41787;53.570;10.032;2022-08-25T02:26:21;8.10;;;4.07;;
40449;SDS011;41787;53.570;10.032;2022-08-25T02:28:48;9.27;;;3.90;;
40449;SDS011;41787;53.570;10.032;2022-08-25T02:31:14;8.93;;;3.90;;
40449;SDS011;41787;53.570;10.032;2022-08-25T02:33:41;8.48;;;4.10;;
40449;SDS011;41787;53.570;10.032;2022-08-25T02:36:07;10.40;;;4.03;;
40449;SDS011;41787;53.570;10.032;2022-08-25T02:38:34;7.88;;;4.05;;
40449;SDS011;41787;53.570;10.032;2022-08-25T02:41:00;4.93;;;4.03;;
40449;SDS011;41787;53.570;10.032;2022-08-25T02:43:33;12.88;;;4.20;;
40449;SDS011;41787;53.570;10.032;2022-08-25T02:45:59;6.25;;;4.00;;
40449;SDS011;41787;53.570;10.032;2022-08-25T02:48:25;7.00;;;3.90;;
40449;SDS011;41787;53.570;10.032;2022-08-25T02:50:52;7.82;;;3.75;;
40449;SDS011;41787;53.570;10.032;2022-08-25T02:53:18;7.38;;;3.92;;
40449;SDS011;41787;53.570;10.032;2022-08-25T02:55:44;4.65;;;4.03;;
40449;SDS011;41787;53.570;10.032;2022-08-25T02:58:11;4.68;;;3.78;;
40449;SDS011;41787;53.570;10.032;2022-08-25T03:00:37;7.13;;;4.32;;
40449;SDS011;41787;53.570;10.032;2022-08-25T03:03:04;7.70;;;4.05;;
40449;SDS011;41787;53.570;10.032;2022-08-25T03:05:30;6.25;;;3.95;;
40449;SDS011;41787;53.570;10.032;2022-08-25T03:07:56;8.10;;;3.72;;
40449;SDS011;41787;53.570;10.032;2022-08-25T03:10:23;6.45;;;3.53;;
40449;SDS011;41787;53.570;10.032;2022-08-25T03:12:48;8.15;;;4.40;;
40449;SDS011;41787;53.570;10.032;2022-08-25T03:15:15;10.52;;;4.07;;
40449;SDS011;41787;53.570;10.032;2022-08-25T03:17:42;7.38;;;3.90;;
40449;SDS011;41787;53.570;10.032;2022-08-25T03:20:08;5.60;;;4.07;;
40449;SDS011;41787;53.570;10.032;2022-08-25T03:22:34;8.88;;;4.38;;
40449;SDS011;41787;53.570;10.032;2022-08-25T03:25:00;7.72;;;3.85;;
40449;SDS011;41787;53.570;10.032;2022-08-25T03:27:45;8.23;;;4.53;;
40449;SDS011;41787;53.570;10.032;2022-08-25T03:30:13;8.27;;;4.32;;
40449;SDS011;41787;53.570;10.032;2022-08-25T03:32:40;9.73;;;4.93;;
40449;SDS011;41787;53.570;10.032;2022-08-25T03:35:06;8.75;;;4.47;;
40449;SDS011;41787;53.570;10.032;2022-08-25T03:37:32;9.82;;;3.97;;
40449;SDS011;41787;53.570;10.032;2022-08-25T03:39:58;9.88;;;4.22;;
40449;SDS011;41787;53.570;10.032;2022-08-25T03:42:24;7.32;;;4.30;;
40449;SDS011;41787;53.570;10.032;2022-08-25T03:44:50;8.00;;;4.45;;
40449;SDS011;41787;53.570;10.032;2022-08-25T03:47:16;8.77;;;4.15;;
40449;SDS011;41787;53.570;10.032;2022-08-25T03:49:42;5.63;;;4.03;;
40449;SDS011;41787;53.570;10.032;2022-08-25T03:52:08;11.13;;;4.70;;
40449;SDS011;41787;53.570;10.032;2022-08-25T03:54:34;10.23;;;4.32;;
40449;SDS011;41787;53.570;10.032;2022-08-25T03:57:00;7.28;;;4.60;;
40449;SDS011;41787;53.570;10.032;2022-08-25T03:59:26;11.02;;;4.68;;
40449;SDS011;41787;53.570;10.032;2022-08-25T04:01:53;6.70;;;4.38;;
40449;SDS011;41787;53.570;10.032;2022-08-25T04:04:19;9.70;;;4.70;;
40449;SDS011;41787;53.570;10.032;2022-08-25T04:06:45;7.78;;;4.35;;
40449;SDS011;41787;53.570;10.032;2022-08-25T04:09:11;7.03;;;4.80;;
40449;SDS011;41787;53.570;10.032;2022-08-25T04:11:39;12.57;;;5.25;;
40449;SDS011;41787;53.570;10.032;2022-08-25T04:14:05;12.43;;;4.55;;
40449;SDS011;41787;53.570;10.032;2022-08-25T04:16:32;9.57;;;4.95;;
40449;SDS011;41787;53.570;10.032;2022-08-25T04:18:59;8.63;;;4.85;;
40449;SDS011;41787;53.570;10.032;2022-08-25T04:21:26;7.00;;;5.00;;
40449;SDS011;41787;53.570;10.032;2022-08-25T04:23:53;10.80;;;5.15;;
40449;SDS011;41787;53.570;10.032;2022-08-25T04:28:46;8.85;;;4.97;;
40449;SDS011;41787;53.570;10.032;2022-08-25T04:31:13;8.32;;;5.15;;
40449;SDS011;41787;53.570;10.032;2022-08-25T04:33:39;8.43;;;4.97;;
40449;SDS011;41787;53.570;10.032;2022-08-25T04:36:06;9.88;;;5.82;;
40449;SDS011;41787;53.570;10.032;2022-08-25T04:38:33;11.52;;;5.38;;
40449;SDS011;41787;53.570;10.032;2022-08-25T04:41:03;12.65;;;5.40;;
40449;SDS011;41787;53.570;10.032;2022-08-25T04:43:30;15.52;;;5.18;;
40449;SDS011;41787;53.570;10.032;2022-08-25T04:45:56;7.20;;;5.10;;
40449;SDS011;41787;53.570;10.032;2022-08-25T04:48:24;12.18;;;5.70;;
40449;SDS011;41787;53.570;10.032;2022-08-25T04:50:50;7.07;;;5.35;;
40449;SDS011;41787;53.570;10.032;2022-08-25T04:53:16;6.32;;;5.15;;
40449;SDS011;41787;53.570;10.032;2022-08-25T04:55:43;9.20;;;5.50;;
40449;SDS011;41787;53.570;10.032;2022-08-25T04:58:09;12.63;;;5.80;;
40449;SDS011;41787;53.570;10.032;2022-08-25T05:00:36;15.50;;;8.65;;
40449;SDS011;41787;53.570;10.032;2022-08-25T05:03:03;11.88;;;6.45;;
40449;SDS011;41787;53.570;10.032;2022-08-25T05:05:29;19.98;;;7.38;;
40449;SDS011;41787;53.570;10.032;2022-08-25T05:07:56;11.57;;;6.40;;
40449;SDS011;41787;53.570;10.032;2022-08-25T05:10:22;10.40;;;6.55;;
40449;SDS011;41787;53.570;10.032;2022-08-25T05:12:48;15.55;;;7.20;;
40449;SDS011;41787;53.570;10.032;2022-08-25T05:15:14;8.07;;;5.72;;
40449;SDS011;41787;53.570;10.032;2022-08-25T05:17:59;12.95;;;6.85;;
40449;SDS011;41787;53.570;10.032;2022-08-25T05:20:25;8.48;;;5.32;;
40449;SDS011;41787;53.570;10.032;2022-08-25T05:22:51;8.90;;;5.63;;
40449;SDS011;41787;53.570;10.032;2022-08-25T05:25:17;10.75;;;5.57;;
40449;SDS011;41787;53.570;10.032;2022-08-25T05:27:43;8.05;;;5.78;;
40449;SDS011;41787;53.570;10.032;2022-08-25T05:30:10;14.63;;;6.65;;
40449;SDS011;41787;53.570;10.032;2022-08-25T05:32:36;14.90;;;6.38;;
40449;SDS011;41787;53.570;10.032;2022-08-25T05:35:03;10.30;;;7.63;;
40449;SDS011;41787;53.570;10.032;2022-08-25T05:37:29;13.10;;;7.32;;
40449;SDS011;41787;53.570;10.032;2022-08-25T05:39:55;11.63;;;7.82;;
40449;SDS011;41787;53.570;10.032;2022-08-25T05:42:21;10.88;;;7.85;;
40449;SDS011;41787;53.570;10.032;2022-08-25T05:44:47;12.45;;;9.18;;
40449;SDS011;41787;53.570;10.032;2022-08-25T05:47:13;13.82;;;9.77;;
40449;SDS011;41787;53.570;10.032;2022-08-25T05:49:39;13.93;;;9.45;;
40449;SDS011;41787;53.570;10.032;2022-08-25T05:52:05;18.75;;;11.38;;
40449;SDS011;41787;53.570;10.032;2022-08-25T05:54:32;14.75;;;9.80;;
40449;SDS011;41787;53.570;10.032;2022-08-25T05:56:58;15.23;;;10.40;;
40449;SDS011;41787;53.570;10.032;2022-08-25T05:59:25;14.48;;;9.77;;
40449;SDS011;41787;53.570;10.032;2022-08-25T06:01:51;16.50;;;10.68;;
40449;SDS011;41787;53.570;10.032;2022-08-25T06:04:35;17.42;;;10.80;;
40449;SDS011;41787;53.570;10.032;2022-08-25T06:07:01;16.60;;;10.98;;
40449;SDS011;41787;53.570;10.032;2022-08-25T06:09:27;17.63;;;11.85;;
40449;SDS011;41787;53.570;10.032;2022-08-25T06:11:53;15.35;;;10.88;;
40449;SDS011;41787;53.570;10.032;2022-08-25T06:14:19;17.15;;;12.07;;
40449;SDS011;41787;53.570;10.032;2022-08-25T06:16:45;19.42;;;11.88;;
40449;SDS011;41787;53.570;10.032;2022-08-25T06:19:14;15.07;;;10.40;;
40449;SDS011;41787;53.570;10.032;2022-08-25T06:21:40;12.70;;;10.40;;
40449;SDS011;41787;53.570;10.032;2022-08-25T06:24:07;13.65;;;10.88;;
40449;SDS011;41787;53.570;10.032;2022-08-25T06:26:34;15.85;;;10.82;;
40449;SDS011;41787;53.570;10.032;2022-08-25T06:29:00;14.90;;;11.25;;
40449;SDS011;41787;53.570;10.032;2022-08-25T06:31:27;12.93;;;10.05;;
40449;SDS011;41787;53.570;10.032;2022-08-25T06:33:53;15.18;;;10.00;;
40449;SDS011;41787;53.570;10.032;2022-08-25T06:36:19;15.48;;;10.90;;
40449;SDS011;41787;53.570;10.032;2022-08-25T06:38:45;17.67;;;12.30;;
40449;SDS011;41787;53.570;10.032;2022-08-25T06:41:13;25.80;;;12.00;;
40449;SDS011;41787;53.570;10.032;2022-08-25T06:43:40;16.20;;;11.45;;
40449;SDS011;41787;53.570;10.032;2022-08-25T06:46:08;16.17;;;12.38;;
40449;SDS011;41787;53.570;10.032;2022-08-25T06:48:34;20.92;;;12.68;;
40449;SDS011;41787;53.570;10.032;2022-08-25T06:51:03;15.10;;;11.55;;
40449;SDS011;41787;53.570;10.032;2022-08-25T06:53:29;14.23;;;11.95;;
40449;SDS011;41787;53.570;10.032;2022-08-25T06:55:56;15.77;;;12.35;;
40449;SDS011;41787;53.570;10.032;2022-08-25T06:58:22;17.08;;;11.98;;
40449;SDS011;41787;53.570;10.032;2022-08-25T07:00:49;17.40;;;11.32;;
40449;SDS011;41787;53.570;10.032;2022-08-25T07:03:15;15.27;;;11.00;;
40449;SDS011;41787;53.570;10.032;2022-08-25T07:05:41;13.00;;;10.80;;
40449;SDS011;41787;53.570;10.032;2022-08-25T07:08:07;15.00;;;9.95;;
40449;SDS011;41787;53.570;10.032;2022-08-25T07:10:35;15.30;;;11.15;;
40449;SDS011;41787;53.570;10.032;2022-08-25T07:13:01;16.50;;;11.00;;
40449;SDS011;41787;53.570;10.032;2022-08-25T07:15:27;14.55;;;10.43;;
40449;SDS011;41787;53.570;10.032;2022-08-25T07:17:53;14.93;;;10.63;;
40449;SDS011;41787;53.570;10.032;2022-08-25T07:20:19;13.68;;;11.05;;
40449;SDS011;41787;53.570;10.032;2022-08-25T07:22:45;15.70;;;11.27;;
40449;SDS011;41787;53.570;10.032;2022-08-25T07:25:12;12.70;;;11.18;;
40449;SDS011;41787;53.570;10.032;2022-08-25T07:27:38;15.70;;;10.25;;
40449;SDS011;41787;53.570;10.032;2022-08-25T07:30:05;14.48;;;10.90;;
40449;SDS011;41787;53.570;10.032;2022-08-25T07:32:31;15.63;;;9.88;;
40449;SDS011;41787;53.570;10.032;2022-08-25T07:34:58;16.38;;;11.57;;
40449;SDS011;41787;53.570;10.032;2022-08-25T07:37:39;19.80;;;12.02;;
40449;SDS011;41787;53.570;10.032;2022-08-25T07:40:07;17.15;;;12.27;;
40449;SDS011;41787;53.570;10.032;2022-08-25T07:42:33;15.88;;;11.80;;
40449;SDS011;41787;53.570;10.032;2022-08-25T07:44:59;15.80;;;12.30;;
40449;SDS011;41787;53.570;10.032;2022-08-25T07:47:25;13.82;;;7.70;;
40449;SDS011;41787;53.570;10.032;2022-08-25T07:49:51;12.73;;;10.23;;
40449;SDS011;41787;53.570;10.032;2022-08-25T07:52:17;15.85;;;11.55;;
40449;SDS011;41787;53.570;10.032;2022-08-25T07:54:44;18.75;;;9.15;;
40449;SDS011;41787;53.570;10.032;2022-08-25T07:57:10;12.65;;;10.60;;
40449;SDS011;41787;53.570;10.032;2022-08-25T07:59:40;14.75;;;9.88;;
40449;SDS011;41787;53.570;10.032;2022-08-25T08:02:07;14.48;;;9.80;;
40449;SDS011;41787;53.570;10.032;2022-08-25T08:04:34;12.15;;;9.98;;
40449;SDS011;41787;53.570;10.032;2022-08-25T08:07:01;10.82;;;9.70;;
40449;SDS011;41787;53.570;10.032;2022-08-25T08:09:27;14.18;;;9.88;;
40449;SDS011;41787;53.570;10.032;2022-08-25T08:11:55;14.05;;;9.35;;
40449;SDS011;41787;53.570;10.032;2022-08-25T08:14:21;13.45;;;8.85;;
40449;SDS011;41787;53.570;10.032;2022-08-25T08:16:47;13.77;;;9.77;;
40449;SDS011;41787;53.570;10.032;2022-08-25T08:19:14;13.70;;;9.38;;
40449;SDS011;41787;53.570;10.032;2022-08-25T08:21:40;13.65;;;9.35;;
40449;SDS011;41787;53.570;10.032;2022-08-25T08:24:06;12.00;;;9.25;;
40449;SDS011;41787;53.570;10.032;2022-08-25T08:26:33;12.23;;;10.20;;
40449;SDS011;41787;53.570;10.032;2022-08-25T08:28:59;15.93;;;10.35;;
40449;SDS011;41787;53.570;10.032;2022-08-25T08:31:25;11.40;;;9.35;;
40449;SDS011;41787;53.570;10.032;2022-08-25T08:33:53;16.40;;;9.43;;
40449;SDS011;41787;53.570;10.032;2022-08-25T08:36:19;12.45;;;9.95;;
40449;SDS011;41787;53.570;10.032;2022-08-25T08:38:45;12.60;;;9.82;;
40449;SDS011;41787;53.570;10.032;2022-08-25T08:44:14;12.30;;;9.50;;
40449;SDS011;41787;53.570;10.032;2022-08-25T08:46:50;12.27;;;9.20;;
40449;SDS011;41787;53.570;10.032;2022-08-25T08:49:22;12.88;;;8.77;;
40449;SDS011;41787;53.570;10.032;2022-08-25T08:54:18;11.80;;;8.20;;
40449;SDS011;41787;53.570;10.032;2022-08-25T08:56:46;11.57;;;8.82;;
40449;SDS011;41787;53.570;10.032;2022-08-25T08:59:17;14.02;;;8.80;;
40449;SDS011;41787;53.570;10.032;2022-08-25T09:01:48;11.40;;;8.20;;
40449;SDS011;41787;53.570;10.032;2022-08-25T09:04:17;11.57;;;8.18;;
40449;SDS011;41787;53.570;10.032;2022-08-25T09:06:45;9.73;;;8.43;;
40449;SDS011;41787;53.570;10.032;2022-08-25T09:17:16;9.48;;;8.15;;
40449;SDS011;41787;53.570;10.032;2022-08-25T09:19:51;11.10;;;8.23;;
40449;SDS011;41787;53.570;10.032;2022-08-25T09:27:46;8.88;;;7.70;;
40449;SDS011;41787;53.570;10.032;2022-08-25T09:30:18;13.35;;;8.35;;
40449;SDS011;41787;53.570;10.032;2022-08-25T09:32:52;11.40;;;8.63;;
40449;SDS011;41787;53.570;10.032;2022-08-25T09:35:26;9.70;;;7.90;;
40449;SDS011;41787;53.570;10.032;2022-08-25T09:38:03;12.00;;;8.30;;
40449;SDS011;41787;53.570;10.032;2022-08-25T09:40:31;13.48;;;8.35;;
40449;SDS011;41787;53.570;10.032;2022-08-25T09:42:59;11.43;;;8.05;;
40449;SDS011;41787;53.570;10.032;2022-08-25T09:45:31;9.23;;;7.50;;
40449;SDS011;41787;53.570;10.032;2022-08-25T09:47:57;13.18;;;8.23;;
40449;SDS011;41787;53.570;10.032;2022-08-25T09:50:23;8.80;;;7.32;;
40449;SDS011;41787;53.570;10.032;2022-08-25T09:52:49;14.02;;;8.98;;
40449;SDS011;41787;53.570;10.032;2022-08-25T09:55:24;15.40;;;9.32;;
40449;SDS011;41787;53.570;10.032;2022-08-25T09:57:51;10.35;;;7.90;;
40449;SDS011;41787;53.570;10.032;2022-08-25T10:00:25;13.30;;;9.55;;
40449;SDS011;41787;53.570;10.032;2022-08-25T10:08:21;11.95;;;9.43;;
40449;SDS011;41787;53.570;10.032;2022-08-25T10:10:52;13.23;;;9.07;;
40449;SDS011;41787;53.570;10.032;2022-08-25T10:13:19;12.88;;;9.02;;
40449;SDS011;41787;53.570;10.032;2022-08-25T10:15:47;12.82;;;8.98;;
40449;SDS011;41787;53.570;10.032;2022-08-25T10:18:28;13.05;;;7.50;;
40449;SDS011;41787;53.570;10.032;2022-08-25T10:21:08;13.93;;;7.78;;
40449;SDS011;41787;53.570;10.032;2022-08-25T10:23:36;12.20;;;8.23;;
40449;SDS011;41787;53.570;10.032;2022-08-25T10:26:07;7.95;;;6.03;;
40449;SDS011;41787;53.570;10.032;2022-08-25T10:28:44;8.55;;;6.03;;
40449;SDS011;41787;53.570;10.032;2022-08-25T10:41:56;10.05;;;4.97;;
40449;SDS011;41787;53.570;10.032;2022-08-25T10:44:37;8.30;;;4.78;;
40449;SDS011;41787;53.570;10.032;2022-08-25T10:50:29;7.25;;;4.03;;
40449;SDS011;41787;53.570;10.032;2022-08-25T10:58:23;6.82;;;2.90;;
40449;SDS011;41787;53.570;10.032;2022-08-25T11:00:54;7.22;;;2.95;;
40449;SDS011;41787;53.570;10.032;2022-08-25T11:05:58;9.00;;;3.03;;
40449;SDS011;41787;53.570;10.032;2022-08-25T11:08:33;9.82;;;3.53;;
40449;SDS011;41787;53.570;10.032;2022-08-25T11:11:03;10.63;;;3.10;;
40449;SDS011;41787;53.570;10.032;2022-08-25T11:13:37;5.25;;;2.85;;
40449;SDS011;41787;53.570;10.032;2022-08-25T11:16:11;7.28;;;2.90;;
40449;SDS011;41787;53.570;10.032;2022-08-25T11:18:42;8.45;;;2.58;;
40449;SDS011;41787;53.570;10.032;2022-08-25T11:21:10;8.70;;;3.00;;
40449;SDS011;41787;53.570;10.032;2022-08-25T11:23:43;8.20;;;2.95;;
40449;SDS011;41787;53.570;10.032;2022-08-25T11:26:11;6.80;;;2.55;;
40449;SDS011;41787;53.570;10.032;2022-08-25T11:31:03;3.42;;;2.40;;
40449;SDS011;41787;53.570;10.032;2022-08-25T11:33:30;9.48;;;3.17;;
40449;SDS011;41787;53.570;10.032;2022-08-25T11:35:57;5.68;;;3.15;;
40449;SDS011;41787;53.570;10.032;2022-08-25T11:41:02;8.57;;;3.00;;
40449;SDS011;41787;53.570;10.032;2022-08-25T11:46:06;7.35;;;2.25;;
40449;SDS011;41787;53.570;10.032;2022-08-25T11:51:32;8.23;;;2.80;;
40449;SDS011;41787;53.570;10.032;2022-08-25T11:54:33;8.40;;;3.17;;
40449;SDS011;41787;53.570;10.032;2022-08-25T11:56:56;6.38;;;2.78;;
40449;SDS011;41787;53.570;10.032;2022-08-25T12:02:17;9.30;;;2.85;;
40449;SDS011;41787;53.570;10.032;2022-08-25T12:04:52;5.32;;;2.72;;
40449;SDS011;41787;53.570;10.032;2022-08-25T12:07:21;8.63;;;2.63;;
40449;SDS011;41787;53.570;10.032;2022-08-25T12:12:30;5.15;;;2.05;;
40449;SDS011;41787;53.570;10.032;2022-08-25T12:15:12;4.90;;;2.35;;
40449;SDS011;41787;53.570;10.032;2022-08-25T12:17:38;8.77;;;3.03;;
40449;SDS011;41787;53.570;10.032;2022-08-25T12:20:04;10.52;;;2.60;;
40449;SDS011;41787;53.570;10.032;2022-08-25T12:25:22;5.38;;;2.40;;
40449;SDS011;41787;53.570;10.032;2022-08-25T12:32:47;4.60;;;1.98;;
40449;SDS011;41787;53.570;10.032;2022-08-25T12:38:06;6.32;;;2.42;;
40449;SDS011;41787;53.570;10.032;2022-08-25T12:40:35;6.30;;;2.50;;
40449;SDS011;41787;53.570;10.032;2022-08-25T12:43:07;9.50;;;2.85;;
40449;SDS011;41787;53.570;10.032;2022-08-25T12:45:38;4.70;;;2.13;;
40449;SDS011;41787;53.570;10.032;2022-08-25T12:50:54;7.90;;;2.83;;
40449;SDS011;41787;53.570;10.032;2022-08-25T12:53:27;5.30;;;2.28;;
40449;SDS011;41787;53.570;10.032;2022-08-25T12:56:05;4.78;;;2.30;;
40449;SDS011;41787;53.570;10.032;2022-08-25T13:04:14;7.40;;;2.55;;
40449;SDS011;41787;53.570;10.032;2022-08-25T13:12:15;9.07;;;2.85;;
40449;SDS011;41787;53.570;10.032;2022-08-25T13:14:40;7.65;;;2.30;;
40449;SDS011;41787;53.570;10.032;2022-08-25T13:17:06;4.88;;;2.33;;
40449;SDS011;41787;53.570;10.032;2022-08-25T13:19:32;4.50;;;2.17;;
40449;SDS011;41787;53.570;10.032;2022-08-25T13:21:59;8.20;;;2.75;;
40449;SDS011;41787;53.570;10.032;2022-08-25T13:26:56;6.47;;;2.63;;
40449;SDS011;41787;53.570;10.032;2022-08-25T13:29:23;7.63;;;2.72;;
40449;SDS011;41787;53.570;10.032;2022-08-25T13:31:57;3.30;;;2.30;;
40449;SDS011;41787;53.570;10.032;2022-08-25T13:34:24;7.85;;;2.65;;
40449;SDS011;41787;53.570;10.032;2022-08-25T13:36:51;5.05;;;2.60;;
40449;SDS011;41787;53.570;10.032;2022-08-25T13:39:36;7.88;;;2.58;;
40449;SDS011;41787;53.570;10.032;2022-08-25T13:42:03;5.97;;;2.40;;
40449;SDS011;41787;53.570;10.032;2022-08-25T13:44:31;6.60;;;2.65;;
40449;SDS011;41787;53.570;10.032;2022-08-25T13:47:15;8.10;;;2.45;;
40449;SDS011;41787;53.570;10.032;2022-08-25T13:49:43;7.15;;;2.60;;
40449;SDS011;41787;53.570;10.032;2022-08-25T13:52:24;5.03;;;2.47;;
40449;SDS011;41787;53.570;10.032;2022-08-25T13:54:50;5.40;;;2.63;;
40449;SDS011;41787;53.570;10.032;2022-08-25T13:57:24;5.38;;;2.35;;
40449;SDS011;41787;53.570;10.032;2022-08-25T13:59:52;5.85;;;2.30;;
40449;SDS011;41787;53.570;10.032;2022-08-25T14:05:04;11.63;;;2.80;;
40449;SDS011;41787;53.570;10.032;2022-08-25T14:07:30;11.40;;;2.40;;
40449;SDS011;41787;53.570;10.032;2022-08-25T14:10:04;8.15;;;3.28;;
40449;SDS011;41787;53.570;10.032;2022-08-25T14:12:41;5.88;;;2.90;;
40449;SDS011;41787;53.570;10.032;2022-08-25T14:15:27;8.10;;;2.80;;
40449;SDS011;41787;53.570;10.032;2022-08-25T14:20:26;7.65;;;3.00;;
40449;SDS011;41787;53.570;10.032;2022-08-25T14:22:54;5.68;;;2.70;;
40449;SDS011;41787;53.570;10.032;2022-08-25T14:25:21;7.57;;;2.60;;
40449;SDS011;41787;53.570;10.032;2022-08-25T14:27:57;11.35;;;2.95;;
40449;SDS011;41787;53.570;10.032;2022-08-25T14:30:23;5.55;;;2.28;;
40449;SDS011;41787;53.570;10.032;2022-08-25T14:32:50;3.88;;;2.30;;
40449;SDS011;41787;53.570;10.032;2022-08-25T14:35:16;6.65;;;2.63;;
40449;SDS011;41787;53.570;10.032;2022-08-25T14:37:42;7.15;;;2.60;;
40449;SDS011;41787;53.570;10.032;2022-08-25T14:40:09;5.15;;;3.00;;
40449;SDS011;41787;53.570;10.032;2022-08-25T14:42:37;10.43;;;2.67;;
40449;SDS011;41787;53.570;10.032;2022-08-25T14:45:03;8.82;;;3.13;;
40449;SDS011;41787;53.570;10.032;2022-08-25T14:47:30;5.03;;;3.00;;
40449;SDS011;41787;53.570;10.032;2022-08-25T14:49:56;6.20;;;2.50;;
40449;SDS011;41787;53.570;10.032;2022-08-25T14:52:25;8.15;;;2.75;;
40449;SDS011;41787;53.570;10.032;2022-08-25T14:54:52;9.13;;;2.90;;
40449;SDS011;41787;53.570;10.032;2022-08-25T14:57:20;6.43;;;2.58;;
40449;SDS011;41787;53.570;10.032;2022-08-25T14:59:46;5.22;;;2.60;;
40449;SDS011;41787;53.570;10.032;2022-08-25T15:02:12;6.43;;;2.47;;
40449;SDS011;41787;53.570;10.032;2022-08-25T15:04:42;7.55;;;2.67;;
40449;SDS011;41787;53.570;10.032;2022-08-25T15:09:57;5.03;;;2.60;;
40449;SDS011;41787;53.570;10.032;2022-08-25T15:12:22;9.45;;;2.75;;
40449;SDS011;41787;53.570;10.032;2022-08-25T15:14:48;6.38;;;2.90;;
40449;SDS011;41787;53.570;10.032;2022-08-25T15:17:15;8.02;;;2.92;;
40449;SDS011;41787;53.570;10.032;2022-08-25T15:19:41;8.70;;;2.85;;
40449;SDS011;41787;53.570;10.032;2022-08-25T15:22:07;9.23;;;2.95;;
40449;SDS011;41787;53.570;10.032;2022-08-25T15:24:33;9.38;;;2.58;;
40449;SDS011;41787;53.570;10.032;2022-08-25T15:26:59;7.05;;;2.88;;
40449;SDS011;41787;53.570;10.032;2022-08-25T15:29:26;7.45;;;2.50;;
40449;SDS011;41787;53.570;10.032;2022-08-25T15:31:53;8.77;;;2.67;;
40449;SDS011;41787;53.570;10.032;2022-08-25T15:34:19;6.95;;;2.90;;
40449;SDS011;41787;53.570;10.032;2022-08-25T15:36:45;5.65;;;2.92;;
40449;SDS011;41787;53.570;10.032;2022-08-25T15:39:11;6.72;;;2.80;;
40449;SDS011;41787;53.570;10.032;2022-08-25T15:41:37;7.00;;;2.50;;
40449;SDS011;41787;53.570;10.032;2022-08-25T15:44:04;9.10;;;2.72;;
40449;SDS011;41787;53.570;10.032;2022-08-25T15:46:30;7.13;;;2.75;;
40449;SDS011;41787;53.570;10.032;2022-08-25T15:48:57;10.15;;;3.00;;
40449;SDS011;41787;53.570;10.032;2022-08-25T15:51:23;10.55;;;2.88;;
40449;SDS011;41787;53.570;10.032;2022-08-25T15:53:49;6.15;;;2.90;;
40449;SDS011;41787;53.570;10.032;2022-08-25T15:56:15;6.35;;;2.70;;
40449;SDS011;41787;53.570;10.032;2022-08-25T15:58:43;4.45;;;2.42;;
40449;SDS011;41787;53.570;10.032;2022-08-25T16:01:13;14.77;;;3.35;;
40449;SDS011;41787;53.570;10.032;2022-08-25T16:03:39;8.88;;;2.63;;
40449;SDS011;41787;53.570;10.032;2022-08-25T16:06:05;7.10;;;2.38;;
40449;SDS011;41787;53.570;10.032;2022-08-25T16:08:31;5.72;;;2.45;;
40449;SDS011;41787;53.570;10.032;2022-08-25T16:10:57;9.63;;;2.65;;
40449;SDS011;41787;53.570;10.032;2022-08-25T16:13:23;10.75;;;2.83;;
40449;SDS011;41787;53.570;10.032;2022-08-25T16:15:49;8.52;;;3.28;;